createdAt,value
2017-08-19T00:01:18.738Z,22.05
2017-08-19T00:03:46.664Z,21.96
2017-08-19T00:06:14.410Z,21.95
2017-08-19T00:08:42.117Z,21.83
2017-08-19T00:11:09.859Z,21.68
2017-08-19T00:13:37.579Z,21.66
2017-08-19T00:16:05.345Z,21.58
2017-08-19T00:18:33.101Z,21.53
2017-08-19T00:21:00.872Z,21.54
2017-08-19T00:23:28.568Z,21.57
2017-08-19T00:25:56.406Z,21.58
2017-08-19T00:28:24.117Z,21.55
2017-08-19T00:30:51.836Z,21.44
2017-08-19T00:33:19.622Z,21.44
2017-08-19T00:35:47.344Z,21.37
2017-08-19T00:38:15.976Z,21.41
2017-08-19T00:40:43.757Z,21.32
2017-08-19T00:43:11.465Z,21.19
2017-08-19T00:45:39.186Z,21.19
2017-08-19T00:48:06.949Z,21.21
2017-08-19T00:50:34.715Z,21.18
2017-08-19T00:53:02.474Z,21.04
2017-08-19T00:55:30.383Z,21.00
2017-08-19T00:57:58.096Z,21.11
2017-08-19T01:00:25.877Z,21.15
2017-08-19T01:02:53.581Z,21.04
2017-08-19T01:05:21.382Z,20.95
2017-08-19T01:07:49.236Z,20.93
2017-08-19T01:10:16.998Z,20.99
2017-08-19T01:12:44.770Z,20.93
2017-08-19T01:15:12.606Z,20.94
2017-08-19T01:17:40.369Z,20.97
2017-08-19T01:20:08.074Z,20.97
2017-08-19T01:22:35.880Z,20.95
2017-08-19T01:25:15.464Z,20.96
2017-08-19T01:27:43.275Z,20.86
2017-08-19T01:30:10.984Z,20.70
2017-08-19T01:32:38.681Z,20.60
2017-08-19T01:35:06.425Z,20.64
2017-08-19T01:37:34.173Z,20.67
2017-08-19T01:40:01.980Z,20.54
2017-08-19T01:42:29.715Z,20.60
2017-08-19T01:44:57.406Z,20.62
2017-08-19T01:47:25.166Z,20.64
2017-08-19T01:49:52.895Z,20.79
2017-08-19T01:52:20.593Z,20.87
2017-08-19T01:54:48.343Z,20.90
2017-08-19T01:57:16.135Z,20.84
2017-08-19T01:59:43.934Z,20.76
2017-08-19T02:02:11.656Z,20.57
2017-08-19T02:04:39.725Z,20.46
2017-08-19T02:07:07.477Z,20.32
2017-08-19T02:09:35.218Z,20.28
2017-08-19T02:12:02.992Z,20.29
2017-08-19T02:14:30.755Z,20.18
2017-08-19T02:16:58.483Z,20.01
2017-08-19T02:19:26.254Z,19.78
2017-08-19T02:21:53.938Z,19.62
2017-08-19T02:24:21.706Z,19.76
2017-08-19T02:26:49.467Z,19.73
2017-08-19T02:29:17.167Z,19.74
2017-08-19T02:31:44.957Z,19.82
2017-08-19T02:34:12.754Z,19.44
2017-08-19T02:36:40.467Z,19.19
2017-08-19T02:39:08.193Z,19.52
2017-08-19T02:41:36.033Z,19.55
2017-08-19T02:44:03.849Z,19.33
2017-08-19T02:46:31.586Z,19.18
2017-08-19T02:48:59.350Z,19.09
2017-08-19T02:51:27.176Z,19.03
2017-08-19T02:53:54.932Z,19.01
2017-08-19T02:56:22.666Z,19.20
2017-08-19T02:58:50.355Z,18.83
2017-08-19T03:01:18.059Z,18.83
2017-08-19T03:03:45.781Z,18.77
2017-08-19T03:06:13.471Z,18.74
2017-08-19T03:08:41.203Z,18.51
2017-08-19T03:11:08.893Z,18.58
2017-08-19T03:13:36.641Z,18.57
2017-08-19T03:16:04.379Z,18.62
2017-08-19T03:18:32.167Z,18.56
2017-08-19T03:20:59.888Z,18.59
2017-08-19T03:23:28.471Z,18.70
2017-08-19T03:25:56.266Z,18.80
2017-08-19T03:28:23.938Z,18.55
2017-08-19T03:30:51.713Z,18.50
2017-08-19T03:33:19.517Z,18.43
2017-08-19T03:35:47.296Z,18.55
2017-08-19T03:38:15.011Z,18.59
2017-08-19T03:40:42.763Z,18.57
2017-08-19T03:43:10.426Z,18.73
2017-08-19T03:45:38.184Z,18.77
2017-08-19T03:48:05.896Z,18.72
2017-08-19T03:50:33.639Z,18.66
2017-08-19T03:53:01.382Z,18.72
2017-08-19T03:55:29.181Z,18.70
2017-08-19T03:57:56.984Z,18.82
2017-08-19T04:00:24.853Z,18.69
2017-08-19T04:02:52.541Z,18.72
2017-08-19T04:05:20.243Z,18.63
2017-08-19T04:07:48.014Z,18.66
2017-08-19T04:10:15.761Z,18.59
2017-08-19T04:12:43.519Z,18.61
2017-08-19T04:15:11.312Z,18.57
2017-08-19T04:17:39.021Z,18.50
2017-08-19T04:20:06.788Z,18.41
2017-08-19T04:22:34.519Z,18.28
2017-08-19T04:25:02.209Z,18.45
2017-08-19T04:27:30.026Z,18.67
2017-08-19T04:29:57.713Z,18.70
2017-08-19T04:32:25.493Z,18.57
2017-08-19T04:34:53.381Z,18.57
2017-08-19T04:37:21.276Z,18.56
2017-08-19T04:39:48.991Z,18.51
2017-08-19T04:42:16.732Z,18.54
2017-08-19T04:44:44.565Z,18.53
2017-08-19T04:47:12.282Z,18.33
2017-08-19T04:49:39.977Z,18.26
2017-08-19T04:52:07.688Z,18.28
2017-08-19T04:54:35.467Z,18.27
2017-08-19T04:57:03.174Z,18.42
2017-08-19T04:59:31.209Z,18.37
2017-08-19T05:01:58.905Z,18.41
2017-08-19T05:04:26.576Z,18.41
2017-08-19T05:06:54.350Z,18.47
2017-08-19T05:09:22.047Z,18.43
2017-08-19T05:11:49.759Z,18.41
2017-08-19T05:14:17.529Z,18.32
2017-08-19T05:16:45.269Z,18.32
2017-08-19T05:19:12.973Z,18.33
2017-08-19T05:21:40.717Z,18.42
2017-08-19T05:24:08.440Z,18.40
2017-08-19T05:26:36.224Z,18.47
2017-08-19T05:29:03.931Z,18.47
2017-08-19T05:31:31.771Z,18.49
2017-08-19T05:33:59.492Z,18.44
2017-08-19T05:36:27.207Z,18.17
2017-08-19T05:38:55.021Z,18.11
2017-08-19T05:41:22.739Z,18.08
2017-08-19T05:43:50.472Z,17.93
2017-08-19T05:46:18.193Z,18.00
2017-08-19T05:48:45.951Z,18.18
2017-08-19T05:51:13.633Z,18.23
2017-08-19T05:53:41.478Z,18.27
2017-08-19T05:56:09.179Z,18.36
2017-08-19T05:58:36.947Z,18.33
2017-08-19T06:01:04.825Z,18.26
2017-08-19T06:03:32.587Z,18.28
2017-08-19T06:06:00.369Z,18.36
2017-08-19T06:08:28.180Z,18.38
2017-08-19T06:10:55.904Z,18.31
2017-08-19T06:13:23.704Z,18.33
2017-08-19T06:15:51.391Z,18.32
2017-08-19T06:18:19.224Z,18.28
2017-08-19T06:20:46.943Z,18.30
2017-08-19T06:23:14.725Z,18.28
2017-08-19T06:25:42.447Z,18.08
2017-08-19T06:28:10.227Z,17.89
2017-08-19T06:30:37.995Z,17.92
2017-08-19T06:33:05.741Z,17.85
2017-08-19T06:35:34.034Z,17.97
2017-08-19T06:38:02.592Z,18.06
2017-08-19T06:40:30.374Z,17.97
2017-08-19T06:42:58.073Z,18.00
2017-08-19T06:45:25.812Z,18.11
2017-08-19T06:47:53.573Z,18.12
2017-08-19T06:50:21.315Z,18.16
2017-08-19T06:52:49.140Z,18.19
2017-08-19T06:55:16.865Z,18.14
2017-08-19T06:57:44.660Z,18.05
2017-08-19T07:00:12.350Z,17.97
2017-08-19T07:02:40.150Z,17.90
2017-08-19T07:05:07.955Z,17.87
2017-08-19T07:07:35.685Z,17.94
2017-08-19T07:10:03.492Z,17.83
2017-08-19T07:12:31.269Z,17.98
2017-08-19T07:14:58.963Z,18.06
2017-08-19T07:17:26.661Z,18.04
2017-08-19T07:19:54.463Z,17.93
2017-08-19T07:22:22.165Z,17.82
2017-08-19T07:24:50.497Z,17.76
2017-08-19T07:27:18.227Z,17.88
2017-08-19T07:29:46.018Z,17.95
2017-08-19T07:32:13.785Z,17.99
2017-08-19T07:34:41.513Z,17.86
2017-08-19T07:37:09.240Z,17.93
2017-08-19T07:39:37.005Z,18.01
2017-08-19T07:42:04.720Z,18.07
2017-08-19T07:44:32.531Z,18.00
2017-08-19T07:47:00.469Z,18.03
2017-08-19T07:49:28.272Z,17.90
2017-08-19T07:51:56.082Z,17.90
2017-08-19T07:54:23.877Z,17.75
2017-08-19T07:56:51.659Z,17.87
2017-08-19T07:59:19.412Z,17.81
2017-08-19T08:01:47.131Z,17.69
2017-08-19T08:04:14.885Z,17.93
2017-08-19T08:06:42.615Z,18.08
2017-08-19T08:09:10.379Z,17.98
2017-08-19T08:11:38.096Z,18.13
2017-08-19T08:14:05.901Z,18.05
2017-08-19T08:16:33.695Z,18.04
2017-08-19T08:19:01.432Z,18.06
2017-08-19T08:21:32.974Z,18.27
2017-08-19T08:24:00.722Z,18.07
2017-08-19T08:26:28.491Z,18.26
2017-08-19T08:28:56.272Z,18.14
2017-08-19T08:31:24.022Z,18.09
2017-08-19T08:33:51.876Z,17.97
2017-08-19T08:36:20.473Z,17.86
2017-08-19T08:38:48.386Z,17.74
2017-08-19T08:41:16.175Z,17.90
2017-08-19T08:43:43.958Z,17.94
2017-08-19T08:46:12.083Z,18.05
2017-08-19T08:48:39.930Z,18.09
2017-08-19T08:51:07.741Z,18.09
2017-08-19T08:53:35.496Z,18.10
2017-08-19T08:56:03.335Z,18.05
2017-08-19T08:58:31.083Z,18.13
2017-08-19T09:00:58.958Z,18.17
2017-08-19T09:03:26.729Z,18.26
2017-08-19T09:05:54.453Z,18.31
2017-08-19T09:08:22.251Z,18.43
2017-08-19T09:10:49.997Z,18.39
2017-08-19T09:13:17.817Z,18.51
2017-08-19T09:15:45.548Z,18.57
2017-08-19T09:18:13.309Z,18.55
2017-08-19T09:20:41.216Z,18.61
2017-08-19T09:23:08.927Z,18.74
2017-08-19T09:25:36.726Z,18.92
2017-08-19T09:28:04.501Z,18.84
2017-08-19T09:30:32.496Z,18.81
2017-08-19T09:33:00.289Z,18.89
2017-08-19T09:35:28.086Z,18.74
2017-08-19T09:37:55.933Z,18.76
2017-08-19T09:40:23.680Z,18.88
2017-08-19T09:42:51.368Z,18.80
2017-08-19T09:45:19.136Z,18.92
2017-08-19T09:47:47.835Z,18.78
2017-08-19T09:50:15.593Z,18.57
2017-08-19T09:52:43.382Z,18.71
2017-08-19T09:55:11.145Z,18.71
2017-08-19T09:57:38.877Z,18.61
2017-08-19T10:00:06.637Z,18.60
2017-08-19T10:02:34.378Z,18.56
2017-08-19T10:05:02.106Z,18.58
2017-08-19T10:07:29.961Z,18.37
2017-08-19T10:09:57.743Z,18.38
2017-08-19T10:12:25.535Z,18.49
2017-08-19T10:14:53.256Z,18.50
2017-08-19T10:17:21.026Z,18.46
2017-08-19T10:19:48.778Z,18.30
2017-08-19T10:22:16.613Z,18.29
2017-08-19T10:24:44.346Z,18.36
2017-08-19T10:27:12.065Z,18.32
2017-08-19T10:29:39.869Z,18.27
2017-08-19T10:32:08.393Z,18.28
2017-08-19T10:34:36.122Z,18.34
2017-08-19T10:37:03.888Z,18.40
2017-08-19T10:39:31.694Z,18.40
2017-08-19T10:41:59.493Z,18.36
2017-08-19T10:44:27.277Z,18.33
2017-08-19T10:46:56.526Z,18.40
2017-08-19T10:49:24.325Z,18.37
2017-08-19T10:51:52.069Z,18.39
2017-08-19T10:54:19.759Z,18.42
2017-08-19T10:56:47.457Z,18.35
2017-08-19T10:59:15.246Z,18.40
2017-08-19T11:01:42.978Z,18.52
2017-08-19T11:04:10.751Z,18.35
2017-08-19T11:06:38.543Z,18.25
2017-08-19T11:09:06.260Z,18.11
2017-08-19T11:11:34.037Z,18.07
2017-08-19T11:14:01.765Z,18.06
2017-08-19T11:16:29.584Z,18.31
2017-08-19T11:18:57.359Z,18.21
2017-08-19T11:21:25.087Z,18.29
2017-08-19T11:23:52.850Z,18.14
2017-08-19T11:26:20.578Z,18.07
2017-08-19T11:28:49.106Z,18.11
2017-08-19T11:31:16.854Z,18.16
2017-08-19T11:33:44.609Z,18.15
2017-08-19T11:36:12.584Z,18.06
2017-08-19T11:38:40.382Z,18.03
2017-08-19T11:41:08.284Z,18.07
2017-08-19T11:43:36.217Z,18.14
2017-08-19T11:46:03.940Z,18.17
2017-08-19T11:48:32.928Z,18.23
2017-08-19T11:51:00.801Z,18.04
2017-08-19T11:53:28.521Z,17.95
2017-08-19T11:55:56.339Z,17.95
2017-08-19T11:58:24.262Z,17.87
2017-08-19T12:00:52.052Z,17.81
2017-08-19T12:03:19.897Z,17.96
2017-08-19T12:05:47.830Z,18.03
2017-08-19T12:08:15.737Z,18.04
2017-08-19T12:10:43.691Z,18.02
2017-08-19T12:13:11.483Z,18.08
2017-08-19T12:15:39.270Z,17.92
2017-08-19T12:18:07.232Z,17.95
2017-08-19T12:20:35.487Z,17.91
2017-08-19T12:23:03.258Z,18.05
2017-08-19T12:25:31.775Z,18.01
2017-08-19T12:27:59.613Z,17.95
2017-08-19T12:30:27.356Z,17.87
2017-08-19T12:32:55.144Z,17.89
2017-08-19T12:35:22.963Z,17.91
2017-08-19T12:37:50.675Z,17.91
2017-08-19T12:40:18.441Z,17.87
2017-08-19T12:42:46.141Z,17.83
2017-08-19T12:45:14.005Z,17.80
2017-08-19T12:47:41.776Z,17.83
2017-08-19T12:50:10.769Z,18.00
2017-08-19T12:52:39.620Z,18.18
2017-08-19T12:55:07.371Z,18.28
2017-08-19T12:57:38.180Z,18.22
2017-08-19T13:00:05.975Z,18.02
2017-08-19T13:02:33.802Z,18.04
2017-08-19T13:05:01.612Z,18.02
2017-08-19T13:07:29.464Z,17.79
2017-08-19T13:09:57.536Z,17.67
2017-08-19T13:12:25.399Z,17.72
2017-08-19T13:14:53.208Z,17.73
2017-08-19T13:17:21.177Z,17.61
2017-08-19T13:19:48.963Z,17.54
2017-08-19T13:22:16.719Z,17.54
2017-08-19T13:24:44.603Z,17.51
2017-08-19T13:27:12.387Z,17.52
2017-08-19T13:29:40.177Z,17.47
2017-08-19T13:32:08.699Z,17.51
2017-08-19T13:34:36.519Z,17.68
2017-08-19T13:37:04.774Z,17.76
2017-08-19T13:39:32.529Z,17.85
2017-08-19T13:42:00.314Z,17.88
2017-08-19T13:44:28.125Z,17.73
2017-08-19T13:46:55.908Z,17.73
2017-08-19T13:49:23.948Z,17.81
2017-08-19T13:51:52.871Z,17.80
2017-08-19T13:54:21.548Z,17.67
2017-08-19T13:56:50.310Z,17.38
2017-08-19T13:59:18.185Z,17.28
2017-08-19T14:01:45.987Z,17.29
2017-08-19T14:04:13.949Z,17.19
2017-08-19T14:06:41.770Z,17.16
2017-08-19T14:09:09.639Z,17.21
2017-08-19T14:11:38.049Z,17.15
2017-08-19T14:14:06.504Z,17.23
2017-08-19T14:16:34.236Z,17.12
2017-08-19T14:19:02.033Z,17.14
2017-08-19T14:21:30.171Z,17.10
2017-08-19T14:23:57.992Z,17.07
2017-08-19T14:26:25.813Z,17.12
2017-08-19T14:28:53.568Z,17.12
2017-08-19T14:31:22.617Z,17.11
2017-08-19T14:33:50.771Z,17.20
2017-08-19T14:36:18.767Z,17.28
2017-08-19T14:38:46.519Z,17.07
2017-08-19T14:41:15.255Z,17.10
2017-08-19T14:43:44.391Z,17.05
2017-08-19T14:46:12.148Z,17.13
2017-08-19T14:48:39.905Z,16.93
2017-08-19T14:51:07.735Z,16.83
2017-08-19T14:53:35.737Z,16.97
2017-08-19T14:56:03.562Z,16.90
2017-08-19T14:58:31.374Z,16.82
2017-08-19T15:00:59.290Z,16.71
2017-08-19T15:03:27.013Z,16.63
2017-08-19T15:05:54.962Z,16.67
2017-08-19T15:08:23.603Z,16.62
2017-08-19T15:10:51.368Z,16.60
2017-08-19T15:13:19.301Z,16.48
2017-08-19T15:15:47.129Z,16.40
2017-08-19T15:18:14.875Z,16.19
2017-08-19T15:20:43.812Z,16.38
2017-08-19T15:23:12.172Z,16.26
2017-08-19T15:25:41.199Z,16.30
2017-08-19T15:28:09.974Z,16.27
2017-08-19T15:30:38.560Z,16.18
2017-08-19T15:33:06.327Z,16.16
2017-08-19T15:35:34.196Z,16.23
2017-08-19T15:38:02.106Z,16.22
2017-08-19T15:40:29.921Z,16.30
2017-08-19T15:42:57.784Z,16.18
2017-08-19T15:45:25.608Z,16.24
2017-08-19T15:47:53.413Z,16.25
2017-08-19T15:50:21.160Z,16.30
2017-08-19T15:52:49.485Z,16.31
2017-08-19T15:55:17.445Z,16.24
2017-08-19T15:57:45.320Z,16.17
2017-08-19T16:00:14.929Z,16.20
2017-08-19T16:02:42.682Z,16.31
2017-08-19T16:05:10.592Z,16.34
2017-08-19T16:07:38.311Z,16.34
2017-08-19T16:10:06.055Z,16.36
2017-08-19T16:12:34.353Z,16.35
2017-08-19T16:15:02.296Z,16.36
2017-08-19T16:17:30.046Z,16.27
2017-08-19T16:19:57.869Z,16.24
2017-08-19T16:22:25.653Z,16.29
2017-08-19T16:24:53.434Z,16.14
2017-08-19T16:27:21.218Z,15.94
2017-08-19T16:29:49.060Z,15.88
2017-08-19T16:32:16.895Z,15.97
2017-08-19T16:34:44.736Z,16.06
2017-08-19T16:37:13.233Z,16.06
2017-08-19T16:39:41.014Z,16.02
2017-08-19T16:42:08.779Z,16.14
2017-08-19T16:44:36.572Z,16.13
2017-08-19T16:47:04.358Z,16.10
2017-08-19T16:49:32.123Z,15.96
2017-08-19T16:52:02.332Z,15.94
2017-08-19T16:54:30.067Z,15.99
2017-08-19T16:56:57.916Z,15.79
2017-08-19T16:59:25.744Z,15.82
2017-08-19T17:01:53.583Z,15.93
2017-08-19T17:04:21.411Z,15.95
2017-08-19T17:06:49.176Z,15.80
2017-08-19T17:09:16.986Z,15.84
2017-08-19T17:11:44.786Z,15.86
2017-08-19T17:14:13.768Z,15.92
2017-08-19T17:16:41.581Z,15.85
2017-08-19T17:19:10.360Z,15.72
2017-08-19T17:21:38.141Z,15.73
2017-08-19T17:24:05.955Z,15.77
2017-08-19T17:26:33.787Z,15.78
2017-08-19T17:29:02.434Z,15.80
2017-08-19T17:31:30.190Z,15.77
2017-08-19T17:33:58.003Z,15.75
2017-08-19T17:36:25.794Z,15.56
2017-08-19T17:38:53.726Z,15.43
2017-08-19T17:41:21.486Z,15.36
2017-08-19T17:43:49.259Z,15.27
2017-08-19T17:46:17.096Z,15.47
2017-08-19T17:48:44.877Z,15.60
2017-08-19T17:51:12.707Z,15.59
2017-08-19T17:53:40.564Z,15.45
2017-08-19T17:56:08.266Z,15.52
2017-08-19T17:58:36.689Z,15.50
2017-08-19T18:01:04.423Z,15.58
2017-08-19T18:03:32.278Z,15.64
2017-08-19T18:06:00.029Z,15.55
2017-08-19T18:08:27.819Z,15.52
2017-08-19T18:10:55.674Z,15.54
2017-08-19T18:13:23.409Z,15.59
2017-08-19T18:15:51.121Z,15.46
2017-08-19T18:18:18.886Z,15.37
2017-08-19T18:20:46.917Z,15.45
2017-08-19T18:23:14.671Z,15.62
2017-08-19T18:25:43.426Z,15.64
2017-08-19T18:28:11.389Z,15.42
2017-08-19T18:30:40.383Z,15.45
2017-08-19T18:33:08.174Z,15.46
2017-08-19T18:35:36.195Z,15.47
2017-08-19T18:38:04.198Z,15.40
2017-08-19T18:40:33.979Z,15.30
2017-08-19T18:43:02.328Z,15.42
2017-08-19T18:45:30.441Z,15.50
2017-08-19T18:47:58.232Z,15.38
2017-08-19T18:50:26.008Z,15.18
2017-08-19T18:52:53.856Z,15.23
2017-08-19T18:55:21.610Z,15.27
2017-08-19T18:57:49.335Z,15.31
2017-08-19T19:00:17.098Z,15.33
2017-08-19T19:02:44.947Z,15.40
2017-08-19T19:05:12.711Z,15.46
2017-08-19T19:07:40.480Z,15.46
2017-08-19T19:10:08.216Z,15.30
2017-08-19T19:12:36.077Z,15.20
2017-08-19T19:15:03.868Z,15.32
2017-08-19T19:17:31.684Z,15.18
2017-08-19T19:19:59.540Z,15.08
2017-08-19T19:22:27.385Z,15.13
2017-08-19T19:24:55.291Z,15.17
2017-08-19T19:27:23.132Z,15.13
2017-08-19T19:29:50.947Z,15.11
2017-08-19T19:32:18.758Z,15.12
2017-08-19T19:34:46.723Z,15.15
2017-08-19T19:37:14.462Z,15.14
2017-08-19T19:39:42.299Z,15.14
2017-08-19T19:42:10.348Z,15.01
2017-08-19T19:44:38.121Z,15.04
2017-08-19T19:47:06.064Z,15.21
2017-08-19T19:49:33.936Z,15.28
2017-08-19T19:52:01.905Z,15.31
2017-08-19T19:54:29.622Z,15.35
2017-08-19T19:56:57.495Z,15.22
2017-08-19T19:59:25.369Z,15.26
2017-08-19T20:01:53.174Z,15.23
2017-08-19T20:04:22.383Z,15.33
2017-08-19T20:06:50.239Z,15.35
2017-08-19T20:09:18.088Z,15.34
2017-08-19T20:11:45.924Z,15.37
2017-08-19T20:14:13.727Z,15.40
2017-08-19T20:16:42.203Z,15.40
2017-08-19T20:19:10.060Z,15.38
2017-08-19T20:21:37.845Z,15.19
2017-08-19T20:45:08.243Z,15.01
2017-08-19T20:47:36.007Z,15.04
2017-08-19T20:50:03.767Z,15.12
2017-08-19T20:52:31.546Z,15.17
2017-08-19T20:54:59.567Z,15.25
2017-08-19T20:57:27.295Z,15.17
2017-08-19T20:59:55.059Z,15.21
2017-08-19T21:02:22.775Z,15.28
2017-08-19T21:04:50.495Z,15.29
2017-08-19T21:07:18.296Z,15.34
2017-08-19T21:09:46.024Z,15.29
2017-08-19T21:12:13.726Z,15.24
2017-08-19T21:14:41.495Z,15.25
2017-08-19T21:17:09.248Z,15.18
2017-08-19T21:19:37.945Z,15.04
2017-08-19T21:22:05.766Z,14.91
2017-08-19T21:24:33.545Z,15.08
2017-08-19T21:27:01.233Z,14.97
2017-08-19T21:29:29.009Z,15.02
2017-08-19T21:31:56.761Z,15.02
2017-08-19T21:34:24.480Z,14.96
2017-08-19T21:36:52.246Z,14.98
2017-08-19T21:39:19.961Z,15.12
2017-08-19T21:41:47.715Z,15.16
2017-08-19T21:44:15.467Z,15.24
2017-08-19T21:46:43.242Z,15.21
2017-08-19T21:49:11.102Z,15.17
2017-08-19T21:51:38.945Z,15.08
2017-08-19T21:54:06.722Z,15.14
2017-08-19T21:56:34.482Z,15.00
2017-08-19T21:59:02.311Z,14.79
2017-08-19T22:01:30.091Z,14.86
2017-08-19T22:03:57.875Z,14.96
2017-08-19T22:06:25.620Z,15.01
2017-08-19T22:08:53.392Z,14.87
2017-08-19T22:11:21.132Z,14.70
2017-08-19T22:13:48.906Z,14.87
2017-08-19T22:16:16.599Z,14.81
2017-08-19T22:18:44.426Z,14.81
2017-08-19T22:21:12.262Z,14.74
2017-08-19T22:23:40.144Z,14.78
2017-08-19T22:26:07.900Z,14.63
2017-08-19T22:28:35.676Z,14.76
2017-08-19T22:31:03.424Z,14.71
2017-08-19T22:33:31.206Z,14.66
2017-08-19T22:35:58.986Z,14.71
2017-08-19T22:38:26.696Z,14.76
2017-08-19T22:40:54.466Z,14.69
2017-08-19T22:43:22.251Z,14.70
2017-08-19T22:45:49.990Z,14.74
2017-08-19T22:48:17.716Z,14.70
2017-08-19T22:50:45.599Z,14.79
2017-08-19T22:53:13.384Z,14.80
2017-08-19T22:55:41.389Z,14.74
2017-08-19T22:58:09.138Z,14.77
2017-08-19T23:00:36.905Z,14.64
2017-08-19T23:03:04.661Z,14.62
2017-08-19T23:05:32.464Z,14.65
2017-08-19T23:08:00.219Z,14.60
2017-08-19T23:10:27.981Z,14.67
2017-08-19T23:12:55.761Z,14.70
2017-08-19T23:15:24.543Z,14.73
2017-08-19T23:17:52.296Z,14.71
2017-08-19T23:20:20.017Z,14.76
2017-08-19T23:22:47.743Z,14.76
2017-08-19T23:25:15.578Z,14.77
2017-08-19T23:27:44.130Z,14.80
2017-08-19T23:30:12.084Z,14.52
2017-08-19T23:32:39.816Z,14.58
2017-08-19T23:35:07.595Z,14.63
2017-08-19T23:37:35.399Z,14.68
2017-08-19T23:40:04.111Z,14.64
2017-08-19T23:42:31.899Z,14.52
2017-08-19T23:44:59.656Z,14.55
2017-08-19T23:47:27.378Z,14.63
2017-08-19T23:49:56.301Z,14.67
2017-08-19T23:52:24.037Z,14.64
2017-08-19T23:54:51.762Z,14.72
2017-08-19T23:57:19.602Z,14.65
2017-08-19T23:59:47.377Z,14.73
